Time,TemperatureF,DewpointF,PressureIn,WindDirection,WindDirectionDegrees,WindSpeedMPH,WindSpeedGustMPH,Humidity,HourlyPrecipIn,Conditions,Clouds,dailyrainin,SoftwareType,DateUTC
2013-12-07 00:23:00,-3.0,-8.0,-100.00,WNW,300,3.0,9.0,76,-99.99,,,-99.99,,2013-12-07 06:23:00,
2013-12-07 00:32:00,-3.0,-8.0,-100.00,WNW,300,3.0,9.0,76,-99.99,,,-99.99,,2013-12-07 06:32:00,
2013-12-07 00:43:00,-3.0,-8.0,-100.00,WNW,300,3.0,9.0,76,-99.99,,,-99.99,,2013-12-07 06:43:00,
2013-12-07 00:53:00,-3.0,-8.0,-100.00,WNW,300,3.0,9.0,76,-99.99,,,-99.99,,2013-12-07 06:53:00,
2013-12-07 01:22:00,-3.0,-9.0,-100.00,WNW,300,4.0,9.0,76,-99.99,,,-99.99,,2013-12-07 07:22:00,
2013-12-07 01:32:00,-3.0,-9.0,-100.00,WNW,300,4.0,9.0,76,-99.99,,,-99.99,,2013-12-07 07:32:00,
2013-12-07 01:42:00,-3.0,-9.0,-100.00,WNW,300,4.0,9.0,76,-99.99,,,-99.99,,2013-12-07 07:42:00,
2013-12-07 01:52:00,-3.0,-9.0,-100.00,WNW,300,4.0,9.0,76,-99.99,,,-99.99,,2013-12-07 07:52:00,
2013-12-07 02:22:00,-5.0,-10.0,-100.00,WNW,300,6.0,12.0,76,-99.99,,,-99.99,,2013-12-07 08:22:00,
2013-12-07 02:32:00,-5.0,-10.0,-100.00,WNW,300,6.0,12.0,76,-99.99,,,-99.99,,2013-12-07 08:32:00,
2013-12-07 02:42:00,-5.0,-10.0,-100.00,WNW,300,6.0,12.0,76,-99.99,,,-99.99,,2013-12-07 08:42:00,
2013-12-07 02:52:00,-5.0,-10.0,-100.00,WNW,300,6.0,12.0,76,-99.99,,,-99.99,,2013-12-07 08:52:00,
2013-12-07 03:22:00,-5.0,-11.0,-100.00,WNW,290,2.0,7.0,77,-99.99,,,-99.99,,2013-12-07 09:22:00,
2013-12-07 03:33:00,-5.0,-11.0,-100.00,WNW,290,2.0,7.0,77,-99.99,,,-99.99,,2013-12-07 09:33:00,
2013-12-07 03:43:00,-5.0,-11.0,-100.00,WNW,290,2.0,7.0,77,-99.99,,,-99.99,,2013-12-07 09:43:00,
2013-12-07 03:53:00,-5.0,-11.0,-100.00,WNW,290,2.0,7.0,77,-99.99,,,-99.99,,2013-12-07 09:53:00,
2013-12-07 04:23:00,-7.0,-12.0,-100.00,West,280,5.0,7.0,78,-99.99,,,-99.99,,2013-12-07 10:23:00,
2013-12-07 04:33:00,-7.0,-12.0,-100.00,West,280,5.0,7.0,78,-99.99,,,-99.99,,2013-12-07 10:33:00,
2013-12-07 04:43:00,-7.0,-12.0,-100.00,West,280,5.0,7.0,78,-99.99,,,-99.99,,2013-12-07 10:43:00,
2013-12-07 04:53:00,-7.0,-12.0,-100.00,West,280,5.0,7.0,78,-99.99,,,-99.99,,2013-12-07 10:53:00,
2013-12-07 06:22:00,-8.0,-13.0,-100.00,WNW,300,5.0,7.0,78,-99.99,,,-99.99,,2013-12-07 12:22:00,
2013-12-07 06:32:00,-8.0,-13.0,-100.00,WNW,300,5.0,7.0,78,-99.99,,,-99.99,,2013-12-07 12:32:00,
2013-12-07 06:42:00,-8.0,-13.0,-100.00,WNW,300,5.0,7.0,78,-99.99,,,-99.99,,2013-12-07 12:42:00,
2013-12-07 06:52:00,-8.0,-13.0,-100.00,WNW,300,5.0,7.0,78,-99.99,,,-99.99,,2013-12-07 12:52:00,
2013-12-07 08:54:00,-4.0,-10.0,-100.00,WNW,290,4.0,9.0,75,-99.99,,,-99.99,,2013-12-07 14:54:00,
2013-12-07 09:22:00,-4.0,-10.0,-100.00,WNW,290,4.0,9.0,75,-99.99,,,-99.99,,2013-12-07 15:22:00,
2013-12-07 09:34:00,-4.0,-10.0,-100.00,WNW,290,4.0,9.0,75,-99.99,,,-99.99,,2013-12-07 15:34:00,
2013-12-07 09:43:00,-4.0,-10.0,-100.00,WNW,290,4.0,9.0,75,-99.99,,,-99.99,,2013-12-07 15:43:00,
2013-12-07 10:23:00,-2.0,-10.0,-100.00,WNW,290,7.0,11.0,69,-99.99,,,-99.99,,2013-12-07 16:23:00,
2013-12-07 10:34:00,-2.0,-10.0,-100.00,WNW,290,7.0,11.0,69,-99.99,,,-99.99,,2013-12-07 16:34:00,
2013-12-07 10:43:00,-2.0,-10.0,-100.00,WNW,290,7.0,11.0,69,-99.99,,,-99.99,,2013-12-07 16:43:00,
2013-12-07 10:52:00,-2.0,-10.0,-100.00,WNW,290,7.0,11.0,69,-99.99,,,-99.99,,2013-12-07 16:52:00,
2013-12-07 11:23:00,2.0,-7.0,-100.00,NW,320,5.0,9.0,65,-99.99,,,-99.99,,2013-12-07 17:23:00,
2013-12-07 11:33:00,2.0,-7.0,-100.00,NW,320,5.0,9.0,65,-99.99,,,-99.99,,2013-12-07 17:33:00,
2013-12-07 11:43:00,2.0,-7.0,-100.00,NW,320,5.0,9.0,65,-99.99,,,-99.99,,2013-12-07 17:43:00,
2013-12-07 11:52:00,2.0,-7.0,-100.00,NW,320,5.0,9.0,65,-99.99,,,-99.99,,2013-12-07 17:52:00,
2013-12-07 12:22:00,3.0,-7.0,-100.00,West,265,6.0,12.0,63,-99.99,,,-99.99,,2013-12-07 18:22:00,
2013-12-07 12:32:00,3.0,-7.0,-100.00,West,265,6.0,12.0,63,-99.99,,,-99.99,,2013-12-07 18:32:00,
2013-12-07 12:43:00,3.0,-7.0,-100.00,West,265,6.0,12.0,63,-99.99,,,-99.99,,2013-12-07 18:43:00,
2013-12-07 12:52:00,3.0,-7.0,-100.00,West,265,6.0,12.0,63,-99.99,,,-99.99,,2013-12-07 18:52:00,
2013-12-07 13:22:00,4.0,-7.0,-100.00,WNW,300,6.0,11.0,58,-99.99,,,-99.99,,2013-12-07 19:22:00,
2013-12-07 13:32:00,4.0,-7.0,-100.00,WNW,300,6.0,11.0,58,-99.99,,,-99.99,,2013-12-07 19:32:00,
2013-12-07 13:42:00,4.0,-7.0,-100.00,WNW,300,6.0,11.0,58,-99.99,,,-99.99,,2013-12-07 19:42:00,
2013-12-07 13:52:00,4.0,-7.0,-100.00,WNW,300,6.0,11.0,58,-99.99,,,-99.99,,2013-12-07 19:52:00,
2013-12-07 14:22:00,6.0,-7.0,-100.00,West,260,6.0,12.0,56,-99.99,,,-99.99,,2013-12-07 20:22:00,
2013-12-07 14:32:00,6.0,-7.0,-100.00,West,260,6.0,12.0,56,-99.99,,,-99.99,,2013-12-07 20:32:00,
2013-12-07 14:42:00,6.0,-7.0,-100.00,West,260,6.0,12.0,56,-99.99,,,-99.99,,2013-12-07 20:42:00,
2013-12-07 14:52:00,6.0,-7.0,-100.00,West,260,6.0,12.0,56,-99.99,,,-99.99,,2013-12-07 20:52:00,
2013-12-07 15:22:00,6.0,-8.0,-100.00,WNW,295,6.0,11.0,54,-99.99,,,-99.99,,2013-12-07 21:22:00,
2013-12-07 15:33:00,6.0,-8.0,-100.00,WNW,295,6.0,11.0,54,-99.99,,,-99.99,,2013-12-07 21:33:00,
2013-12-07 15:43:00,6.0,-8.0,-100.00,WNW,295,6.0,11.0,54,-99.99,,,-99.99,,2013-12-07 21:43:00,
2013-12-07 15:53:00,6.0,-8.0,-100.00,WNW,295,6.0,11.0,54,-99.99,,,-99.99,,2013-12-07 21:53:00,
2013-12-07 16:23:00,5.0,-9.0,-100.00,WSW,250,5.0,9.0,54,-99.99,,,-99.99,,2013-12-07 22:23:00,
2013-12-07 16:33:00,5.0,-9.0,-100.00,WSW,250,5.0,9.0,54,-99.99,,,-99.99,,2013-12-07 22:33:00,
2013-12-07 16:42:00,5.0,-9.0,-100.00,WSW,250,5.0,9.0,54,-99.99,,,-99.99,,2013-12-07 22:42:00,
2013-12-07 16:53:00,5.0,-9.0,-100.00,WSW,250,5.0,9.0,54,-99.99,,,-99.99,,2013-12-07 22:53:00,
2013-12-07 18:22:00,0.0,-8.0,-100.00,WSW,245,0.0,1.0,67,-99.99,,,-99.99,,2013-12-08 00:22:00,
2013-12-07 18:32:00,0.0,-8.0,-100.00,WSW,245,0.0,1.0,67,-99.99,,,-99.99,,2013-12-08 00:32:00,
2013-12-07 18:42:00,0.0,-8.0,-100.00,WSW,245,0.0,1.0,67,-99.99,,,-99.99,,2013-12-08 00:42:00,
2013-12-07 18:52:00,0.0,-8.0,-100.00,WSW,245,0.0,1.0,67,-99.99,,,-99.99,,2013-12-08 00:52:00,
2013-12-07 19:22:00,-1.0,-8.0,-100.00,South,180,0.0,0.0,73,-99.99,,,-99.99,,2013-12-08 01:22:00,
2013-12-07 19:32:00,-1.0,-8.0,-100.00,South,180,0.0,0.0,73,-99.99,,,-99.99,,2013-12-08 01:32:00,
2013-12-07 19:42:00,-1.0,-8.0,-100.00,South,180,0.0,0.0,73,-99.99,,,-99.99,,2013-12-08 01:42:00,
2013-12-07 19:52:00,-1.0,-8.0,-100.00,South,180,0.0,0.0,73,-99.99,,,-99.99,,2013-12-08 01:52:00,
2013-12-07 20:22:00,-3.0,-8.0,-100.00,South,180,0.0,0.0,78,-99.99,,,-99.99,,2013-12-08 02:22:00,
2013-12-07 20:32:00,-3.0,-8.0,-100.00,South,180,0.0,0.0,78,-99.99,,,-99.99,,2013-12-08 02:32:00,
2013-12-07 20:43:00,-3.0,-8.0,-100.00,South,180,0.0,0.0,78,-99.99,,,-99.99,,2013-12-08 02:43:00,
2013-12-07 20:52:00,-3.0,-8.0,-100.00,South,180,0.0,0.0,78,-99.99,,,-99.99,,2013-12-08 02:52:00,
2013-12-07 22:23:00,-3.0,-7.0,-100.00,SSW,210,0.0,0.0,84,-99.99,,,-99.99,,2013-12-08 04:23:00,
2013-12-07 22:33:00,-3.0,-7.0,-100.00,SSW,210,0.0,0.0,84,-99.99,,,-99.99,,2013-12-08 04:33:00,
2013-12-07 22:43:00,-3.0,-7.0,-100.00,SSW,210,0.0,0.0,84,-99.99,,,-99.99,,2013-12-08 04:43:00,
2013-12-07 22:53:00,-3.0,-7.0,-100.00,SSW,210,0.0,0.0,84,-99.99,,,-99.99,,2013-12-08 04:53:00,
2013-12-07 23:23:00,-3.0,-6.0,-100.00,South,175,0.0,0.0,85,-99.99,,,-99.99,,2013-12-08 05:23:00,
2013-12-07 23:34:00,-3.0,-6.0,-100.00,South,175,0.0,0.0,85,-99.99,,,-99.99,,2013-12-08 05:34:00,
2013-12-07 23:43:00,-3.0,-6.0,-100.00,South,175,0.0,0.0,85,-99.99,,,-99.99,,2013-12-08 05:43:00,
2013-12-07 23:53:00,-3.0,-6.0,-100.00,South,175,0.0,0.0,85,-99.99,,,-99.99,,2013-12-08 05:53:00,